WMKK/KUL METAR and TAF weather

Enter ICAO airport designator
Station Type Date Time Source
WMKK METAR 2019/08/22 08:30 UTC NOAA

WMKK 220830Z 21003KT 150V260 6000 SCT018 SCT140 BKN280 30/25 Q1008 NOSIG


Station Type Date Time Source
WMKK Decoded METAR 2019/08/22 08:30 UTC NOAA

Station name not available
Aug 22, 2019 - 04:30 AM EDT / 2019.08.22 0830 UTC
Wind: from the SSW (210 degrees) at 3 MPH (3 KT) (direction variable):0
Visibility: 3 mile(s):0
Sky conditions: mostly cloudy
Temperature: 86 F (30 C)
Heat index: 96.8 F (36.0 C):1
Dew Point: 77 F (25 C)
Relative Humidity: 74%
Pressure (altimeter): 29.77 in. Hg (1008 hPa)
ob: WMKK 220830Z 21003KT 150V260 6000 SCT018 SCT140 BKN280 30/25 Q1008 NOSIG
cycle: 8

Station Type Date Time Source
WMKK TAF 2019/08/22 06:09 UTC NOAA

TAF WMKK 220500Z 2206/2312 21005KT 6000 FEW017CB
TEMPO 2206/2209 20010KT 4000 TSRA FEW010 FEW016CB SCT018
BECMG 2212/2213 02005KT 8000 FEW030 PROB30
TEMPO 2305/2308 22010KT 4000 TSRA FEW017CB SCT020

Example: see airport list